sensor_id;sensor_type;location;lat;lon;timestamp;temperature;humidity
42803;DHT22;28447;48.682;9.022;2023-03-01T05:00:35;-0.60;99.90
42803;DHT22;28447;48.682;9.022;2023-03-01T05:03:01;-0.60;99.90
42803;DHT22;28447;48.682;9.022;2023-03-01T05:05:33;-0.60;99.90
42803;DHT22;28447;48.682;9.022;2023-03-01T05:08:01;-0.50;99.90
42803;DHT22;28447;48.682;9.022;2023-03-01T05:10:28;-0.50;99.90
42803;DHT22;28447;48.682;9.022;2023-03-01T05:12:55;-0.50;99.90
42803;DHT22;28447;48.682;9.022;2023-03-01T05:15:23;-0.50;99.90
42803;DHT22;28447;48.682;9.022;2023-03-01T05:17:51;-0.60;99.90
42803;DHT22;28447;48.682;9.022;2023-03-01T05:20:17;-0.60;99.90
42803;DHT22;28447;48.682;9.022;2023-03-01T05:22:43;-0.60;99.90
42803;DHT22;28447;48.682;9.022;2023-03-01T05:25:09;-0.50;99.90
42803;DHT22;28447;48.682;9.022;2023-03-01T05:27:35;-0.40;99.90
42803;DHT22;28447;48.682;9.022;2023-03-01T05:30:01;-0.50;99.90
42803;DHT22;28447;48.682;9.022;2023-03-01T05:32:42;-0.50;99.90
42803;DHT22;28447;48.682;9.022;2023-03-01T05:35:10;-0.40;99.90
42803;DHT22;28447;48.682;9.022;2023-03-01T05:37:39;-0.40;99.90
42803;DHT22;28447;48.682;9.022;2023-03-01T05:40:05;-0.40;99.90
42803;DHT22;28447;48.682;9.022;2023-03-01T05:42:33;-0.40;99.90
42803;DHT22;28447;48.682;9.022;2023-03-01T05:44:58;-0.30;99.90
42803;DHT22;28447;48.682;9.022;2023-03-01T05:47:24;-0.40;99.90
42803;DHT22;28447;48.682;9.022;2023-03-01T05:49:49;-0.50;99.90
42803;DHT22;28447;48.682;9.022;2023-03-01T05:52:15;-0.40;99.90
42803;DHT22;28447;48.682;9.022;2023-03-01T05:54:41;-0.40;99.90
42803;DHT22;28447;48.682;9.022;2023-03-01T05:57:06;-0.30;99.90
42803;DHT22;28447;48.682;9.022;2023-03-01T05:59:32;-0.30;99.90
42803;DHT22;28447;48.682;9.022;2023-03-01T06:01:57;-0.30;99.90
42803;DHT22;28447;48.682;9.022;2023-03-01T06:04:23;-0.30;99.90
42803;DHT22;28447;48.682;9.022;2023-03-01T06:06:49;-0.40;99.90
42803;DHT22;28447;48.682;9.022;2023-03-01T06:09:14;-0.20;99.90
42803;DHT22;28447;48.682;9.022;2023-03-01T06:11:41;-0.20;99.90
42803;DHT22;28447;48.682;9.022;2023-03-01T06:14:07;-0.20;99.90
42803;DHT22;28447;48.682;9.022;2023-03-01T06:16:33;-0.10;99.90
42803;DHT22;28447;48.682;9.022;2023-03-01T06:18:59;0.00;99.90
42803;DHT22;28447;48.682;9.022;2023-03-01T06:21:24;-0.10;99.90
42803;DHT22;28447;48.682;9.022;2023-03-01T06:23:50;-0.10;99.90
42803;DHT22;28447;48.682;9.022;2023-03-01T06:26:17;-0.10;99.90
42803;DHT22;28447;48.682;9.022;2023-03-01T06:28:43;-0.10;99.90
42803;DHT22;28447;48.682;9.022;2023-03-01T06:31:11;-0.20;99.90
42803;DHT22;28447;48.682;9.022;2023-03-01T06:33:36;-0.10;99.90
42803;DHT22;28447;48.682;9.022;2023-03-01T06:36:02;0.00;99.90
42803;DHT22;28447;48.682;9.022;2023-03-01T06:38:28;0.00;99.90
42803;DHT22;28447;48.682;9.022;2023-03-01T06:40:55;0.00;99.90
42803;DHT22;28447;48.682;9.022;2023-03-01T06:43:22;0.00;99.90
42803;DHT22;28447;48.682;9.022;2023-03-01T06:45:48;0.10;99.90
42803;DHT22;28447;48.682;9.022;2023-03-01T06:48:14;0.20;99.90
42803;DHT22;28447;48.682;9.022;2023-03-01T06:50:39;0.20;99.90
42803;DHT22;28447;48.682;9.022;2023-03-01T06:53:05;0.20;99.90
42803;DHT22;28447;48.682;9.022;2023-03-01T06:55:31;0.20;99.90
42803;DHT22;28447;48.682;9.022;2023-03-01T06:57:57;0.30;99.90
42803;DHT22;28447;48.682;9.022;2023-03-01T07:00:25;0.20;99.90
42803;DHT22;28447;48.682;9.022;2023-03-01T07:02:50;0.30;99.90
42803;DHT22;28447;48.682;9.022;2023-03-01T07:05:16;0.30;99.90
42803;DHT22;28447;48.682;9.022;2023-03-01T07:07:42;0.30;99.90
42803;DHT22;28447;48.682;9.022;2023-03-01T07:10:08;0.30;99.90
42803;DHT22;28447;48.682;9.022;2023-03-01T07:12:34;0.40;99.90
42803;DHT22;28447;48.682;9.022;2023-03-01T07:15:00;0.50;99.90
42803;DHT22;28447;48.682;9.022;2023-03-01T07:17:26;0.40;99.90
42803;DHT22;28447;48.682;9.022;2023-03-01T07:19:51;0.40;99.90
42803;DHT22;28447;48.682;9.022;2023-03-01T07:22:17;0.30;99.90
42803;DHT22;28447;48.682;9.022;2023-03-01T07:24:43;0.30;99.90
42803;DHT22;28447;48.682;9.022;2023-03-01T07:27:09;0.40;99.90
42803;DHT22;28447;48.682;9.022;2023-03-01T07:29:34;0.40;99.90
42803;DHT22;28447;48.682;9.022;2023-03-01T07:32:02;0.30;99.90
42803;DHT22;28447;48.682;9.022;2023-03-01T07:34:28;0.50;99.90
42803;DHT22;28447;48.682;9.022;2023-03-01T07:36:53;0.70;99.90
42803;DHT22;28447;48.682;9.022;2023-03-01T07:39:19;0.90;99.90
42803;DHT22;28447;48.682;9.022;2023-03-01T07:41:45;1.20;99.90
42803;DHT22;28447;48.682;9.022;2023-03-01T07:44:10;1.10;99.90
42803;DHT22;28447;48.682;9.022;2023-03-01T07:46:36;1.20;99.90
42803;DHT22;28447;48.682;9.022;2023-03-01T07:49:02;1.60;99.90
42803;DHT22;28447;48.682;9.022;2023-03-01T07:51:27;1.30;99.90
42803;DHT22;28447;48.682;9.022;2023-03-01T07:53:53;1.50;99.90
42803;DHT22;28447;48.682;9.022;2023-03-01T07:56:18;1.30;99.90
42803;DHT22;28447;48.682;9.022;2023-03-01T07:58:45;1.30;99.90
42803;DHT22;28447;48.682;9.022;2023-03-01T08:01:16;1.50;99.90
42803;DHT22;28447;48.682;9.022;2023-03-01T08:03:42;1.50;99.90
42803;DHT22;28447;48.682;9.022;2023-03-01T08:06:12;1.80;99.90
42803;DHT22;28447;48.682;9.022;2023-03-01T08:08:39;1.80;99.90
42803;DHT22;28447;48.682;9.022;2023-03-01T08:11:06;2.00;99.90
42803;DHT22;28447;48.682;9.022;2023-03-01T08:13:31;2.10;99.90
42803;DHT22;28447;48.682;9.022;2023-03-01T08:16:05;2.00;99.90
42803;DHT22;28447;48.682;9.022;2023-03-01T08:18:31;2.00;99.90
42803;DHT22;28447;48.682;9.022;2023-03-01T08:21:09;2.00;99.90
42803;DHT22;28447;48.682;9.022;2023-03-01T08:23:35;2.50;99.90
42803;DHT22;28447;48.682;9.022;2023-03-01T08:28:38;2.40;99.90
42803;DHT22;28447;48.682;9.022;2023-03-01T08:31:22;2.40;99.90
42803;DHT22;28447;48.682;9.022;2023-03-01T08:33:50;2.30;99.90
42803;DHT22;28447;48.682;9.022;2023-03-01T08:36:24;2.70;99.90
42803;DHT22;28447;48.682;9.022;2023-03-01T08:38:50;2.50;99.90
42803;DHT22;28447;48.682;9.022;2023-03-01T08:41:16;2.60;99.90
42803;DHT22;28447;48.682;9.022;2023-03-01T08:43:41;3.00;99.90
42803;DHT22;28447;48.682;9.022;2023-03-01T08:46:07;3.20;99.90
42803;DHT22;28447;48.682;9.022;2023-03-01T08:48:33;3.60;99.90
42803;DHT22;28447;48.682;9.022;2023-03-01T08:51:08;3.90;99.90
42803;DHT22;28447;48.682;9.022;2023-03-01T08:53:33;3.50;99.90
42803;DHT22;28447;48.682;9.022;2023-03-01T08:56:03;3.80;99.90
42803;DHT22;28447;48.682;9.022;2023-03-01T08:58:29;3.90;99.90
42803;DHT22;28447;48.682;9.022;2023-03-01T09:00:55;3.80;99.90
42803;DHT22;28447;48.682;9.022;2023-03-01T09:03:22;4.20;99.90
42803;DHT22;28447;48.682;9.022;2023-03-01T09:05:48;4.40;99.90
42803;DHT22;28447;48.682;9.022;2023-03-01T09:08:16;4.30;99.90
42803;DHT22;28447;48.682;9.022;2023-03-01T09:10:42;4.50;99.90
42803;DHT22;28447;48.682;9.022;2023-03-01T09:13:08;4.00;99.90
42803;DHT22;28447;48.682;9.022;2023-03-01T09:15:36;4.20;99.90
42803;DHT22;28447;48.682;9.022;2023-03-01T09:18:01;5.00;99.90
42803;DHT22;28447;48.682;9.022;2023-03-01T09:20:27;4.70;99.90
42803;DHT22;28447;48.682;9.022;2023-03-01T09:22:52;4.90;99.90
42803;DHT22;28447;48.682;9.022;2023-03-01T09:25:18;5.60;99.90
42803;DHT22;28447;48.682;9.022;2023-03-01T09:27:44;6.10;99.90
42803;DHT22;28447;48.682;9.022;2023-03-01T09:30:10;5.20;99.90
42803;DHT22;28447;48.682;9.022;2023-03-01T09:32:35;6.20;99.90
42803;DHT22;28447;48.682;9.022;2023-03-01T09:35:01;5.40;99.90
42803;DHT22;28447;48.682;9.022;2023-03-01T09:37:29;5.60;99.90
42803;DHT22;28447;48.682;9.022;2023-03-01T09:39:55;5.90;99.90
42803;DHT22;28447;48.682;9.022;2023-03-01T09:42:21;6.10;99.90
42803;DHT22;28447;48.682;9.022;2023-03-01T09:45:04;7.10;99.60
42803;DHT22;28447;48.682;9.022;2023-03-01T09:47:35;6.90;99.40
42803;DHT22;28447;48.682;9.022;2023-03-01T09:50:14;7.50;98.30
42803;DHT22;28447;48.682;9.022;2023-03-01T09:53:06;7.50;98.00
42803;DHT22;28447;48.682;9.022;2023-03-01T09:58:39;7.60;97.20
42803;DHT22;28447;48.682;9.022;2023-03-01T10:03:57;7.30;98.70
42803;DHT22;28447;48.682;9.022;2023-03-01T10:06:25;6.80;98.30
42803;DHT22;28447;48.682;9.022;2023-03-01T10:09:01;8.00;96.30
42803;DHT22;28447;48.682;9.022;2023-03-01T10:11:35;8.60;95.00
42803;DHT22;28447;48.682;9.022;2023-03-01T10:14:31;9.00;94.80
42803;DHT22;28447;48.682;9.022;2023-03-01T10:17:09;8.10;95.30
42803;DHT22;28447;48.682;9.022;2023-03-01T10:19:37;7.10;96.40
42803;DHT22;28447;48.682;9.022;2023-03-01T10:24:36;8.70;94.30
42803;DHT22;28447;48.682;9.022;2023-03-01T10:27:11;8.70;94.30
42803;DHT22;28447;48.682;9.022;2023-03-01T10:29:48;8.50;95.00
42803;DHT22;28447;48.682;9.022;2023-03-01T10:32:16;7.60;96.20
42803;DHT22;28447;48.682;9.022;2023-03-01T10:34:42;7.80;95.90
42803;DHT22;28447;48.682;9.022;2023-03-01T10:37:15;8.30;95.10
42803;DHT22;28447;48.682;9.022;2023-03-01T10:39:58;7.50;95.20
42803;DHT22;28447;48.682;9.022;2023-03-01T10:42:35;9.00;94.00
42803;DHT22;28447;48.682;9.022;2023-03-01T10:45:35;8.20;94.60
42803;DHT22;28447;48.682;9.022;2023-03-01T10:48:17;8.40;95.60
42803;DHT22;28447;48.682;9.022;2023-03-01T10:50:49;9.20;93.60
42803;DHT22;28447;48.682;9.022;2023-03-01T10:53:36;9.80;92.50
42803;DHT22;28447;48.682;9.022;2023-03-01T10:56:10;9.30;93.20
42803;DHT22;28447;48.682;9.022;2023-03-01T10:58:38;8.60;94.10
42803;DHT22;28447;48.682;9.022;2023-03-01T11:01:05;8.60;94.00
42803;DHT22;28447;48.682;9.022;2023-03-01T11:03:38;8.80;94.20
42803;DHT22;28447;48.682;9.022;2023-03-01T11:13:35;10.00;92.20
42803;DHT22;28447;48.682;9.022;2023-03-01T11:16:07;10.80;90.70
42803;DHT22;28447;48.682;9.022;2023-03-01T11:18:34;10.60;90.90
42803;DHT22;28447;48.682;9.022;2023-03-01T11:21:01;10.90;90.20
42803;DHT22;28447;48.682;9.022;2023-03-01T11:23:29;11.10;90.40
42803;DHT22;28447;48.682;9.022;2023-03-01T11:25:58;9.40;92.30
42803;DHT22;28447;48.682;9.022;2023-03-01T11:28:26;8.50;93.90
42803;DHT22;28447;48.682;9.022;2023-03-01T11:31:08;9.50;91.80
42803;DHT22;28447;48.682;9.022;2023-03-01T11:39:10;9.40;92.30
42803;DHT22;28447;48.682;9.022;2023-03-01T11:41:41;10.60;91.80
42803;DHT22;28447;48.682;9.022;2023-03-01T11:44:16;11.30;89.90
42803;DHT22;28447;48.682;9.022;2023-03-01T11:47:15;11.70;88.80
42803;DHT22;28447;48.682;9.022;2023-03-01T12:01:08;16.40;78.50
42803;DHT22;28447;48.682;9.022;2023-03-01T12:14:42;14.40;79.40
42803;DHT22;28447;48.682;9.022;2023-03-01T12:20:28;15.40;76.60
42803;DHT22;28447;48.682;9.022;2023-03-01T12:23:58;15.80;76.20
42803;DHT22;28447;48.682;9.022;2023-03-01T12:26:25;17.50;73.20
42803;DHT22;28447;48.682;9.022;2023-03-01T12:29:18;17.00;72.10
42803;DHT22;28447;48.682;9.022;2023-03-01T12:48:54;17.00;69.80
42803;DHT22;28447;48.682;9.022;2023-03-01T12:51:26;17.20;69.10
42803;DHT22;28447;48.682;9.022;2023-03-01T12:53:55;18.30;68.70
42803;DHT22;28447;48.682;9.022;2023-03-01T12:56:25;18.50;67.80
42803;DHT22;28447;48.682;9.022;2023-03-01T13:01:51;18.00;66.10
42803;DHT22;28447;48.682;9.022;2023-03-01T13:04:39;18.10;66.00
42803;DHT22;28447;48.682;9.022;2023-03-01T13:10:19;19.90;63.30
42803;DHT22;28447;48.682;9.022;2023-03-01T13:17:48;19.20;63.80
42803;DHT22;28447;48.682;9.022;2023-03-01T13:20:19;19.80;62.20
42803;DHT22;28447;48.682;9.022;2023-03-01T13:22:46;19.40;60.30
42803;DHT22;28447;48.682;9.022;2023-03-01T13:25:20;18.40;62.70
42803;DHT22;28447;48.682;9.022;2023-03-01T13:27:46;19.20;62.00
42803;DHT22;28447;48.682;9.022;2023-03-01T13:35:54;20.20;59.80
42803;DHT22;28447;48.682;9.022;2023-03-01T13:38:46;20.90;58.70
42803;DHT22;28447;48.682;9.022;2023-03-01T13:41:17;21.00;58.80
42803;DHT22;28447;48.682;9.022;2023-03-01T13:46:56;19.20;60.70
42803;DHT22;28447;48.682;9.022;2023-03-01T13:49:27;18.30;63.30
42803;DHT22;28447;48.682;9.022;2023-03-01T13:51:53;17.60;64.90
42803;DHT22;28447;48.682;9.022;2023-03-01T13:54:29;18.40;62.70
42803;DHT22;28447;48.682;9.022;2023-03-01T13:56:57;20.00;59.80
42803;DHT22;28447;48.682;9.022;2023-03-01T13:59:23;18.10;60.80
42803;DHT22;28447;48.682;9.022;2023-03-01T14:01:59;18.80;62.70
42803;DHT22;28447;48.682;9.022;2023-03-01T14:04:28;18.50;62.40
42803;DHT22;28447;48.682;9.022;2023-03-01T14:07:16;17.80;63.70
42803;DHT22;28447;48.682;9.022;2023-03-01T14:09:45;18.30;62.20
42803;DHT22;28447;48.682;9.022;2023-03-01T14:14:44;17.10;64.50
42803;DHT22;28447;48.682;9.022;2023-03-01T14:19:58;18.00;63.00
42803;DHT22;28447;48.682;9.022;2023-03-01T14:22:29;17.70;61.60
42803;DHT22;28447;48.682;9.022;2023-03-01T14:24:58;17.40;64.70
42803;DHT22;28447;48.682;9.022;2023-03-01T14:27:39;18.80;62.30
42803;DHT22;28447;48.682;9.022;2023-03-01T14:30:15;18.00;61.10
42803;DHT22;28447;48.682;9.022;2023-03-01T14:32:42;17.40;64.20
42803;DHT22;28447;48.682;9.022;2023-03-01T14:35:51;17.20;64.70
42803;DHT22;28447;48.682;9.022;2023-03-01T14:38:29;16.10;64.80
42803;DHT22;28447;48.682;9.022;2023-03-01T14:40:58;16.60;64.90
42803;DHT22;28447;48.682;9.022;2023-03-01T14:43:24;17.90;62.20
42803;DHT22;28447;48.682;9.022;2023-03-01T14:45:53;17.50;61.50
42803;DHT22;28447;48.682;9.022;2023-03-01T14:48:19;16.60;65.60
42803;DHT22;28447;48.682;9.022;2023-03-01T14:50:45;17.20;64.30
42803;DHT22;28447;48.682;9.022;2023-03-01T14:53:23;17.60;63.20
42803;DHT22;28447;48.682;9.022;2023-03-01T14:55:55;16.70;64.70
42803;DHT22;28447;48.682;9.022;2023-03-01T14:58:23;17.90;62.50
42803;DHT22;28447;48.682;9.022;2023-03-01T15:01:03;18.40;60.70
42803;DHT22;28447;48.682;9.022;2023-03-01T15:03:38;16.60;64.60
42803;DHT22;28447;48.682;9.022;2023-03-01T15:06:07;16.80;62.90
42803;DHT22;28447;48.682;9.022;2023-03-01T15:08:35;16.30;66.80
42803;DHT22;28447;48.682;9.022;2023-03-01T15:13:40;16.00;64.50
42803;DHT22;28447;48.682;9.022;2023-03-01T15:16:07;15.50;66.80
42803;DHT22;28447;48.682;9.022;2023-03-01T15:18:34;15.70;67.00
42803;DHT22;28447;48.682;9.022;2023-03-01T15:21:09;15.40;67.90
42803;DHT22;28447;48.682;9.022;2023-03-01T15:23:37;14.70;68.50
42803;DHT22;28447;48.682;9.022;2023-03-01T15:26:04;14.10;69.20
42803;DHT22;28447;48.682;9.022;2023-03-01T15:28:34;15.20;69.10
42803;DHT22;28447;48.682;9.022;2023-03-01T15:31:22;14.80;69.20
42803;DHT22;28447;48.682;9.022;2023-03-01T15:33:49;15.40;69.00
42803;DHT22;28447;48.682;9.022;2023-03-01T15:36:42;15.00;68.70
42803;DHT22;28447;48.682;9.022;2023-03-01T15:39:30;15.00;69.30
42803;DHT22;28447;48.682;9.022;2023-03-01T15:41:58;13.50;72.60
42803;DHT22;28447;48.682;9.022;2023-03-01T15:44:34;13.30;73.10
42803;DHT22;28447;48.682;9.022;2023-03-01T15:47:01;13.10;73.00
42803;DHT22;28447;48.682;9.022;2023-03-01T15:49:42;12.30;74.20
42803;DHT22;28447;48.682;9.022;2023-03-01T15:52:29;11.80;76.80
42803;DHT22;28447;48.682;9.022;2023-03-01T15:55:02;11.90;77.60
42803;DHT22;28447;48.682;9.022;2023-03-01T15:57:28;11.30;77.50
42803;DHT22;28447;48.682;9.022;2023-03-01T15:59:55;10.30;79.70
42803;DHT22;28447;48.682;9.022;2023-03-01T16:02:22;10.50;82.10
42803;DHT22;28447;48.682;9.022;2023-03-01T16:04:48;10.80;79.00
42803;DHT22;28447;48.682;9.022;2023-03-01T16:07:16;10.20;79.80
42803;DHT22;28447;48.682;9.022;2023-03-01T16:09:42;10.30;81.20
42803;DHT22;28447;48.682;9.022;2023-03-01T16:12:14;9.90;81.50
42803;DHT22;28447;48.682;9.022;2023-03-01T16:14:41;9.60;82.20
42803;DHT22;28447;48.682;9.022;2023-03-01T16:17:06;9.40;82.50
42803;DHT22;28447;48.682;9.022;2023-03-01T16:19:35;9.20;83.30
42803;DHT22;28447;48.682;9.022;2023-03-01T16:22:02;9.10;84.30
42803;DHT22;28447;48.682;9.022;2023-03-01T16:24:28;8.90;83.60
42803;DHT22;28447;48.682;9.022;2023-03-01T16:26:54;8.40;85.40
42803;DHT22;28447;48.682;9.022;2023-03-01T16:29:19;8.50;86.10
42803;DHT22;28447;48.682;9.022;2023-03-01T16:31:45;8.30;86.50
42803;DHT22;28447;48.682;9.022;2023-03-01T16:34:11;7.70;87.60
42803;DHT22;28447;48.682;9.022;2023-03-01T16:36:36;7.50;88.00
42803;DHT22;28447;48.682;9.022;2023-03-01T16:39:02;6.90;90.00
42803;DHT22;28447;48.682;9.022;2023-03-01T16:41:28;7.00;90.40
42803;DHT22;28447;48.682;9.022;2023-03-01T16:43:54;6.90;90.20
42803;DHT22;28447;48.682;9.022;2023-03-01T16:46:23;6.70;90.20
42803;DHT22;28447;48.682;9.022;2023-03-01T16:48:49;6.80;90.50
42803;DHT22;28447;48.682;9.022;2023-03-01T16:51:15;6.70;90.30
42803;DHT22;28447;48.682;9.022;2023-03-01T16:53:41;6.60;90.50
42803;DHT22;28447;48.682;9.022;2023-03-01T16:56:09;6.70;90.60
42803;DHT22;28447;48.682;9.022;2023-03-01T16:58:36;6.70;91.00
42803;DHT22;28447;48.682;9.022;2023-03-01T17:01:14;6.60;90.70
42803;DHT22;28447;48.682;9.022;2023-03-01T17:03:41;6.30;91.30
42803;DHT22;28447;48.682;9.022;2023-03-01T17:06:09;6.20;91.30
42803;DHT22;28447;48.682;9.022;2023-03-01T17:08:37;6.10;91.50
42803;DHT22;28447;48.682;9.022;2023-03-01T17:11:09;6.20;91.20
42803;DHT22;28447;48.682;9.022;2023-03-01T17:13:36;6.10;91.60
42803;DHT22;28447;48.682;9.022;2023-03-01T17:16:10;6.00;91.50
42803;DHT22;28447;48.682;9.022;2023-03-01T17:18:36;6.00;92.20
42803;DHT22;28447;48.682;9.022;2023-03-01T17:21:03;5.90;92.30
42803;DHT22;28447;48.682;9.022;2023-03-01T17:23:30;5.60;92.10
42803;DHT22;28447;48.682;9.022;2023-03-01T17:25:56;5.60;92.30
42803;DHT22;28447;48.682;9.022;2023-03-01T17:28:24;5.40;92.60
42803;DHT22;28447;48.682;9.022;2023-03-01T17:30:50;5.40;92.80
42803;DHT22;28447;48.682;9.022;2023-03-01T17:33:17;5.40;92.80
42803;DHT22;28447;48.682;9.022;2023-03-01T17:35:43;5.50;93.10
42803;DHT22;28447;48.682;9.022;2023-03-01T17:38:12;5.40;93.20
42803;DHT22;28447;48.682;9.022;2023-03-01T17:40:39;5.30;93.20
42803;DHT22;28447;48.682;9.022;2023-03-01T17:43:05;5.10;93.50
42803;DHT22;28447;48.682;9.022;2023-03-01T17:45:30;5.10;93.40
42803;DHT22;28447;48.682;9.022;2023-03-01T17:47:56;5.00;93.60
42803;DHT22;28447;48.682;9.022;2023-03-01T17:50:22;4.90;94.00
42803;DHT22;28447;48.682;9.022;2023-03-01T17:52:47;4.80;94.40
42803;DHT22;28447;48.682;9.022;2023-03-01T17:55:14;4.80;94.60
42803;DHT22;28447;48.682;9.022;2023-03-01T17:57:40;4.80;94.30
42803;DHT22;28447;48.682;9.022;2023-03-01T18:00:09;4.60;94.50
42803;DHT22;28447;48.682;9.022;2023-03-01T18:02:35;4.70;94.50
42803;DHT22;28447;48.682;9.022;2023-03-01T18:05:00;4.60;94.50
42803;DHT22;28447;48.682;9.022;2023-03-01T18:07:27;4.60;94.60
42803;DHT22;28447;48.682;9.022;2023-03-01T18:09:52;4.70;94.50
42803;DHT22;28447;48.682;9.022;2023-03-01T18:12:18;4.60;94.80
42803;DHT22;28447;48.682;9.022;2023-03-01T18:14:43;4.50;95.30
42803;DHT22;28447;48.682;9.022;2023-03-01T18:17:09;4.50;95.00
42803;DHT22;28447;48.682;9.022;2023-03-01T18:19:38;4.50;94.90
42803;DHT22;28447;48.682;9.022;2023-03-01T18:22:06;4.30;95.20
42803;DHT22;28447;48.682;9.022;2023-03-01T18:24:33;4.20;95.60
42803;DHT22;28447;48.682;9.022;2023-03-01T18:26:58;4.20;95.50
42803;DHT22;28447;48.682;9.022;2023-03-01T18:29:24;4.10;95.70
42803;DHT22;28447;48.682;9.022;2023-03-01T18:31:50;4.00;95.90
42803;DHT22;28447;48.682;9.022;2023-03-01T18:34:16;3.90;96.10
42803;DHT22;28447;48.682;9.022;2023-03-01T18:36:42;3.90;95.90
42803;DHT22;28447;48.682;9.022;2023-03-01T18:39:08;3.90;96.20
42803;DHT22;28447;48.682;9.022;2023-03-01T18:41:34;3.80;96.60
42803;DHT22;28447;48.682;9.022;2023-03-01T18:44:01;3.80;96.70
42803;DHT22;28447;48.682;9.022;2023-03-01T18:46:28;3.80;96.50
42803;DHT22;28447;48.682;9.022;2023-03-01T18:48:53;3.60;96.60
42803;DHT22;28447;48.682;9.022;2023-03-01T18:51:22;3.50;97.30
42803;DHT22;28447;48.682;9.022;2023-03-01T18:53:48;3.50;97.10
42803;DHT22;28447;48.682;9.022;2023-03-01T18:56:14;3.50;97.40
42803;DHT22;28447;48.682;9.022;2023-03-01T18:58:40;3.50;97.30
42803;DHT22;28447;48.682;9.022;2023-03-01T19:01:18;3.50;97.10
42803;DHT22;28447;48.682;9.022;2023-03-01T19:03:43;3.50;97.30
42803;DHT22;28447;48.682;9.022;2023-03-01T19:06:09;3.40;97.40
42803;DHT22;28447;48.682;9.022;2023-03-01T19:08:35;3.40;97.40
42803;DHT22;28447;48.682;9.022;2023-03-01T19:11:03;3.40;97.50
42803;DHT22;28447;48.682;9.022;2023-03-01T19:13:29;3.40;97.60
42803;DHT22;28447;48.682;9.022;2023-03-01T19:16:18;3.40;97.80
42803;DHT22;28447;48.682;9.022;2023-03-01T19:18:45;3.30;97.90
42803;DHT22;28447;48.682;9.022;2023-03-01T19:21:17;3.30;97.90
42803;DHT22;28447;48.682;9.022;2023-03-01T19:23:43;3.20;97.90
42803;DHT22;28447;48.682;9.022;2023-03-01T19:26:11;3.20;97.90
42803;DHT22;28447;48.682;9.022;2023-03-01T19:28:37;3.10;98.10
42803;DHT22;28447;48.682;9.022;2023-03-01T19:31:05;3.00;98.20
42803;DHT22;28447;48.682;9.022;2023-03-01T19:33:32;3.00;98.30
42803;DHT22;28447;48.682;9.022;2023-03-01T19:35:59;2.90;98.30
42803;DHT22;28447;48.682;9.022;2023-03-01T19:38:25;2.80;98.80
42803;DHT22;28447;48.682;9.022;2023-03-01T19:40:51;2.80;98.70
42803;DHT22;28447;48.682;9.022;2023-03-01T19:43:17;2.80;98.80
42803;DHT22;28447;48.682;9.022;2023-03-01T19:45:43;2.80;99.00
42803;DHT22;28447;48.682;9.022;2023-03-01T19:48:10;2.70;99.20
42803;DHT22;28447;48.682;9.022;2023-03-01T19:50:36;2.70;99.30
42803;DHT22;28447;48.682;9.022;2023-03-01T19:53:03;2.60;99.60
42803;DHT22;28447;48.682;9.022;2023-03-01T19:55:28;2.60;99.70
42803;DHT22;28447;48.682;9.022;2023-03-01T19:57:54;2.60;99.10
42803;DHT22;28447;48.682;9.022;2023-03-01T20:00:20;2.50;99.70
42803;DHT22;28447;48.682;9.022;2023-03-01T20:02:46;2.50;99.90
42803;DHT22;28447;48.682;9.022;2023-03-01T20:05:11;2.50;99.80
42803;DHT22;28447;48.682;9.022;2023-03-01T20:07:37;2.50;99.90
42803;DHT22;28447;48.682;9.022;2023-03-01T20:10:04;2.40;99.90
42803;DHT22;28447;48.682;9.022;2023-03-01T20:12:30;2.40;99.90
42803;DHT22;28447;48.682;9.022;2023-03-01T20:14:56;2.40;99.90
42803;DHT22;28447;48.682;9.022;2023-03-01T20:17:22;2.30;99.90
42803;DHT22;28447;48.682;9.022;2023-03-01T20:19:47;2.30;99.90
42803;DHT22;28447;48.682;9.022;2023-03-01T20:22:13;2.30;99.90
42803;DHT22;28447;48.682;9.022;2023-03-01T20:24:42;2.20;99.90
42803;DHT22;28447;48.682;9.022;2023-03-01T20:27:08;2.20;99.90
42803;DHT22;28447;48.682;9.022;2023-03-01T20:29:33;2.30;99.90
42803;DHT22;28447;48.682;9.022;2023-03-01T20:31:59;2.30;99.90
42803;DHT22;28447;48.682;9.022;2023-03-01T20:34:25;2.30;99.90
42803;DHT22;28447;48.682;9.022;2023-03-01T20:36:50;2.40;99.90
42803;DHT22;28447;48.682;9.022;2023-03-01T20:39:16;2.40;99.90
42803;DHT22;28447;48.682;9.022;2023-03-01T20:41:42;2.50;99.90
42803;DHT22;28447;48.682;9.022;2023-03-01T20:44:08;2.50;99.90
42803;DHT22;28447;48.682;9.022;2023-03-01T20:46:34;2.40;99.90
42803;DHT22;28447;48.682;9.022;2023-03-01T20:49:01;2.50;99.90
42803;DHT22;28447;48.682;9.022;2023-03-01T20:51:27;2.40;99.90
42803;DHT22;28447;48.682;9.022;2023-03-01T20:53:53;2.40;99.90
42803;DHT22;28447;48.682;9.022;2023-03-01T20:56:20;2.40;99.90
42803;DHT22;28447;48.682;9.022;2023-03-01T20:58:46;2.40;99.90
42803;DHT22;28447;48.682;9.022;2023-03-01T21:01:17;2.40;99.90
42803;DHT22;28447;48.682;9.022;2023-03-01T21:03:43;2.30;99.90
42803;DHT22;28447;48.682;9.022;2023-03-01T21:06:09;2.30;99.90
42803;DHT22;28447;48.682;9.022;2023-03-01T21:08:35;2.20;99.90
42803;DHT22;28447;48.682;9.022;2023-03-01T21:11:02;2.30;99.90
42803;DHT22;28447;48.682;9.022;2023-03-01T21:13:29;2.30;99.90
42803;DHT22;28447;48.682;9.022;2023-03-01T21:18:26;2.20;99.90
42803;DHT22;28447;48.682;9.022;2023-03-01T21:21:05;2.20;99.90
42803;DHT22;28447;48.682;9.022;2023-03-01T21:23:33;2.20;99.90
42803;DHT22;28447;48.682;9.022;2023-03-01T21:26:10;2.20;99.90
42803;DHT22;28447;48.682;9.022;2023-03-01T21:28:36;2.20;99.90
42803;DHT22;28447;48.682;9.022;2023-03-01T21:31:24;2.10;99.90
42803;DHT22;28447;48.682;9.022;2023-03-01T21:33:56;2.20;99.90
42803;DHT22;28447;48.682;9.022;2023-03-01T21:36:24;2.10;99.90
42803;DHT22;28447;48.682;9.022;2023-03-01T21:38:51;2.10;99.90
42803;DHT22;28447;48.682;9.022;2023-03-01T21:43:46;2.10;99.90
42803;DHT22;28447;48.682;9.022;2023-03-01T21:46:15;2.00;99.90
42803;DHT22;28447;48.682;9.022;2023-03-01T21:48:42;2.00;99.90
42803;DHT22;28447;48.682;9.022;2023-03-01T21:51:10;2.00;99.90
42803;DHT22;28447;48.682;9.022;2023-03-01T21:53:36;2.00;99.90
42803;DHT22;28447;48.682;9.022;2023-03-01T21:56:03;1.90;99.90
42803;DHT22;28447;48.682;9.022;2023-03-01T21:58:30;1.90;99.90
42803;DHT22;28447;48.682;9.022;2023-03-01T22:01:04;1.90;99.90
42803;DHT22;28447;48.682;9.022;2023-03-01T22:03:30;1.80;99.90
42803;DHT22;28447;48.682;9.022;2023-03-01T22:05:58;1.70;99.90
42803;DHT22;28447;48.682;9.022;2023-03-01T22:08:24;1.60;99.90
42803;DHT22;28447;48.682;9.022;2023-03-01T22:10:50;1.70;99.90
42803;DHT22;28447;48.682;9.022;2023-03-01T22:13:17;1.60;99.90
42803;DHT22;28447;48.682;9.022;2023-03-01T22:15:43;1.60;99.90
42803;DHT22;28447;48.682;9.022;2023-03-01T22:18:10;1.70;99.90
42803;DHT22;28447;48.682;9.022;2023-03-01T22:20:36;1.60;99.90
42803;DHT22;28447;48.682;9.022;2023-03-01T22:23:03;1.60;99.90
42803;DHT22;28447;48.682;9.022;2023-03-01T22:25:29;1.60;99.90
42803;DHT22;28447;48.682;9.022;2023-03-01T22:27:55;1.50;99.90
42803;DHT22;28447;48.682;9.022;2023-03-01T22:30:20;1.50;99.90
42803;DHT22;28447;48.682;9.022;2023-03-01T22:32:46;1.50;99.90